首页
METAR-TAF:

METAR-TAF

机场 :

Petawawa, 安大略省, 加拿大

纬度: 45-57N, 经度: 077-19W, 海拔: 130米

当前天气观测

该预报发布于16分钟前的03:00 UTC
风速3节,风向西
温度 -13°C
湿度 78%
气压 1027 hPa
能見度: 14.5公里
天空无云

METAR: CYWA 120300Z AUTO 26003KT 9SM CLR M13/M16 A3032 RMK SLP281

时间: 22:16 (03:16 UTC)

预报

该预报发布于3小时和46分钟前的23:30 UTC
预报有效从12日的 00点(UTC)到 12日的 12点(UTC)
风速10节,风向西
能見度: 10公里
散云层高于4000英尺
多云层高于8000英尺
成为
从 12日的 00点(UTC)到 12日的 02点(UTC)
少量云层高于4000英尺
从 12日的 0600点(UTC)
风速5节,风向西
能見度: 10公里
多云层高于3000英尺

TAF: CYWA 112330Z 1200/1212 28010KT P6SM SCT040 BKN080 BECMG 1200/1202 FEW040 FM120600 28005KT P6SM BKN030 RMK FCST BASED ON AUTO OBS. NXT FCST BY 120600Z

超过4000个机场的气象观测和天气预报(METAR&TAF报告)。

可查询的气象台以黄色和红色小点在地图上表示。

将鼠标移到小点上方,可查看气象台名称。

然后点击查看天气观测和预报。

如需切换地图:点击带黑十字的绿色按钮放大地图;点击带横线的绿色按钮缩小地图;或者点击绿色箭头查看邻近地区的地图。


METAR-TAF: